sensor_id;sensor_type;location;lat;lon;timestamp;pressure;altitude;pressure_sealevel;temperature;humidity
52935;BME280;38802;50.198;19.796;2023-12-07T00:00:38;96032.63;;;-4.52;100.00
52935;BME280;38802;50.198;19.796;2023-12-07T00:03:25;96033.33;;;-4.52;100.00
52935;BME280;38802;50.198;19.796;2023-12-07T00:05:52;96033.32;;;-4.52;100.00
52935;BME280;38802;50.198;19.796;2023-12-07T00:08:18;96031.11;;;-4.52;100.00
52935;BME280;38802;50.198;19.796;2023-12-07T00:10:45;96028.84;;;-4.49;100.00
52935;BME280;38802;50.198;19.796;2023-12-07T00:13:12;96029.15;;;-4.48;100.00
52935;BME280;38802;50.198;19.796;2023-12-07T00:15:39;96034.91;;;-4.48;100.00
52935;BME280;38802;50.198;19.796;2023-12-07T00:18:05;96039.31;;;-4.48;100.00
52935;BME280;38802;50.198;19.796;2023-12-07T00:20:32;96039.77;;;-4.46;100.00
52935;BME280;38802;50.198;19.796;2023-12-07T00:22:59;96038.41;;;-4.46;100.00
52935;BME280;38802;50.198;19.796;2023-12-07T00:25:25;96040.03;;;-4.43;100.00
52935;BME280;38802;50.198;19.796;2023-12-07T00:27:52;96039.30;;;-4.42;100.00
52935;BME280;38802;50.198;19.796;2023-12-07T00:30:19;96037.98;;;-4.43;100.00
52935;BME280;38802;50.198;19.796;2023-12-07T00:32:45;96037.63;;;-4.42;100.00
52935;BME280;38802;50.198;19.796;2023-12-07T00:35:13;96038.13;;;-4.42;100.00
52935;BME280;38802;50.198;19.796;2023-12-07T00:37:41;96038.42;;;-4.40;100.00
52935;BME280;38802;50.198;19.796;2023-12-07T00:40:07;96040.82;;;-4.41;100.00
52935;BME280;38802;50.198;19.796;2023-12-07T00:42:34;96041.95;;;-4.38;100.00
52935;BME280;38802;50.198;19.796;2023-12-07T00:45:01;96043.23;;;-4.36;100.00
52935;BME280;38802;50.198;19.796;2023-12-07T00:47:27;96044.73;;;-4.35;100.00
52935;BME280;38802;50.198;19.796;2023-12-07T00:49:54;96045.20;;;-4.34;100.00
52935;BME280;38802;50.198;19.796;2023-12-07T00:52:20;96043.47;;;-4.31;100.00
52935;BME280;38802;50.198;19.796;2023-12-07T00:54:47;96044.27;;;-4.29;100.00
52935;BME280;38802;50.198;19.796;2023-12-07T00:57:14;96047.80;;;-4.29;100.00
52935;BME280;38802;50.198;19.796;2023-12-07T00:59:41;96045.21;;;-4.27;100.00
52935;BME280;38802;50.198;19.796;2023-12-07T01:02:07;96047.17;;;-4.24;100.00
52935;BME280;38802;50.198;19.796;2023-12-07T01:04:34;96045.54;;;-4.21;100.00
52935;BME280;38802;50.198;19.796;2023-12-07T01:07:01;96048.04;;;-4.19;100.00
52935;BME280;38802;50.198;19.796;2023-12-07T01:09:27;96051.11;;;-4.19;100.00
52935;BME280;38802;50.198;19.796;2023-12-07T01:11:54;96052.24;;;-4.18;100.00
52935;BME280;38802;50.198;19.796;2023-12-07T01:14:21;96050.17;;;-4.17;100.00
52935;BME280;38802;50.198;19.796;2023-12-07T01:16:47;96054.90;;;-4.16;100.00
52935;BME280;38802;50.198;19.796;2023-12-07T01:19:14;96053.89;;;-4.16;100.00
52935;BME280;38802;50.198;19.796;2023-12-07T01:21:41;96052.34;;;-4.15;100.00
52935;BME280;38802;50.198;19.796;2023-12-07T01:24:08;96051.86;;;-4.16;100.00
52935;BME280;38802;50.198;19.796;2023-12-07T01:26:42;96053.36;;;-4.15;100.00
52935;BME280;38802;50.198;19.796;2023-12-07T01:29:09;96052.99;;;-4.14;100.00
52935;BME280;38802;50.198;19.796;2023-12-07T01:31:36;96053.13;;;-4.13;100.00
52935;BME280;38802;50.198;19.796;2023-12-07T01:34:02;96052.54;;;-4.10;100.00
52935;BME280;38802;50.198;19.796;2023-12-07T01:36:29;96052.85;;;-4.09;100.00
52935;BME280;38802;50.198;19.796;2023-12-07T01:38:56;96051.30;;;-4.08;100.00
52935;BME280;38802;50.198;19.796;2023-12-07T01:41:22;96045.30;;;-4.06;100.00
52935;BME280;38802;50.198;19.796;2023-12-07T01:43:49;96048.36;;;-4.06;100.00
52935;BME280;38802;50.198;19.796;2023-12-07T01:46:16;96046.61;;;-4.05;100.00
52935;BME280;38802;50.198;19.796;2023-12-07T01:48:43;96049.30;;;-4.04;100.00
52935;BME280;38802;50.198;19.796;2023-12-07T01:51:10;96046.73;;;-4.02;100.00
52935;BME280;38802;50.198;19.796;2023-12-07T01:53:38;96049.17;;;-3.99;100.00
52935;BME280;38802;50.198;19.796;2023-12-07T01:56:05;96051.63;;;-3.96;100.00
52935;BME280;38802;50.198;19.796;2023-12-07T01:58:34;96049.40;;;-3.95;100.00
52935;BME280;38802;50.198;19.796;2023-12-07T02:01:01;96046.20;;;-3.96;100.00
52935;BME280;38802;50.198;19.796;2023-12-07T02:03:28;96044.10;;;-3.94;100.00
52935;BME280;38802;50.198;19.796;2023-12-07T02:05:56;96044.61;;;-3.94;100.00
52935;BME280;38802;50.198;19.796;2023-12-07T02:08:24;96041.69;;;-3.93;100.00
52935;BME280;38802;50.198;19.796;2023-12-07T02:10:51;96044.05;;;-3.92;100.00
52935;BME280;38802;50.198;19.796;2023-12-07T02:13:19;96045.89;;;-3.91;100.00
52935;BME280;38802;50.198;19.796;2023-12-07T02:15:47;96042.65;;;-3.90;100.00
52935;BME280;38802;50.198;19.796;2023-12-07T02:18:15;96045.66;;;-3.88;100.00
52935;BME280;38802;50.198;19.796;2023-12-07T02:20:43;96045.11;;;-3.87;100.00
52935;BME280;38802;50.198;19.796;2023-12-07T02:23:12;96042.88;;;-3.86;100.00
52935;BME280;38802;50.198;19.796;2023-12-07T02:28:07;96047.39;;;-3.84;100.00
52935;BME280;38802;50.198;19.796;2023-12-07T02:30:33;96050.08;;;-3.83;100.00
52935;BME280;38802;50.198;19.796;2023-12-07T02:33:00;96051.27;;;-3.83;100.00
52935;BME280;38802;50.198;19.796;2023-12-07T02:35:27;96056.83;;;-3.81;100.00
52935;BME280;38802;50.198;19.796;2023-12-07T02:37:54;96056.63;;;-3.80;100.00
52935;BME280;38802;50.198;19.796;2023-12-07T02:40:22;96057.48;;;-3.81;100.00
52935;BME280;38802;50.198;19.796;2023-12-07T02:42:49;96060.85;;;-3.80;100.00
52935;BME280;38802;50.198;19.796;2023-12-07T02:45:16;96064.51;;;-3.77;100.00
52935;BME280;38802;50.198;19.796;2023-12-07T02:47:42;96066.52;;;-3.75;100.00
52935;BME280;38802;50.198;19.796;2023-12-07T02:50:12;96067.89;;;-3.76;100.00
52935;BME280;38802;50.198;19.796;2023-12-07T02:52:39;96068.20;;;-3.75;100.00
52935;BME280;38802;50.198;19.796;2023-12-07T02:55:06;96068.14;;;-3.73;100.00
52935;BME280;38802;50.198;19.796;2023-12-07T02:57:33;96071.14;;;-3.71;100.00
52935;BME280;38802;50.198;19.796;2023-12-07T03:00:00;96072.79;;;-3.70;100.00
52935;BME280;38802;50.198;19.796;2023-12-07T03:02:27;96073.11;;;-3.69;100.00
52935;BME280;38802;50.198;19.796;2023-12-07T03:04:54;96074.38;;;-3.66;100.00
52935;BME280;38802;50.198;19.796;2023-12-07T03:07:20;96076.77;;;-3.61;100.00
52935;BME280;38802;50.198;19.796;2023-12-07T03:09:47;96081.76;;;-3.58;100.00
52935;BME280;38802;50.198;19.796;2023-12-07T03:12:15;96081.09;;;-3.58;100.00
52935;BME280;38802;50.198;19.796;2023-12-07T03:14:42;96079.44;;;-3.54;100.00
52935;BME280;38802;50.198;19.796;2023-12-07T03:17:08;96080.27;;;-3.53;100.00
52935;BME280;38802;50.198;19.796;2023-12-07T03:19:38;96081.50;;;-3.54;100.00
52935;BME280;38802;50.198;19.796;2023-12-07T03:22:05;96080.30;;;-3.54;100.00
52935;BME280;38802;50.198;19.796;2023-12-07T03:24:35;96081.95;;;-3.53;100.00
52935;BME280;38802;50.198;19.796;2023-12-07T03:27:02;96081.70;;;-3.56;100.00
52935;BME280;38802;50.198;19.796;2023-12-07T03:29:30;96080.34;;;-3.56;100.00
52935;BME280;38802;50.198;19.796;2023-12-07T03:31:57;96077.73;;;-3.54;100.00
52935;BME280;38802;50.198;19.796;2023-12-07T03:34:24;96081.52;;;-3.50;100.00
52935;BME280;38802;50.198;19.796;2023-12-07T03:36:51;96077.80;;;-3.44;100.00
52935;BME280;38802;50.198;19.796;2023-12-07T03:39:18;96076.89;;;-3.42;100.00
52935;BME280;38802;50.198;19.796;2023-12-07T03:41:45;96081.50;;;-3.42;100.00
52935;BME280;38802;50.198;19.796;2023-12-07T03:44:12;96081.53;;;-3.43;100.00
52935;BME280;38802;50.198;19.796;2023-12-07T03:46:38;96086.88;;;-3.46;100.00
52935;BME280;38802;50.198;19.796;2023-12-07T03:51:39;96085.44;;;-3.43;100.00
52935;BME280;38802;50.198;19.796;2023-12-07T03:54:07;96088.52;;;-3.44;100.00
52935;BME280;38802;50.198;19.796;2023-12-07T03:56:35;96093.29;;;-3.39;100.00
52935;BME280;38802;50.198;19.796;2023-12-07T03:59:03;96092.96;;;-3.34;100.00
52935;BME280;38802;50.198;19.796;2023-12-07T04:01:31;96089.28;;;-3.30;100.00
52935;BME280;38802;50.198;19.796;2023-12-07T04:04:00;96093.19;;;-3.30;100.00
52935;BME280;38802;50.198;19.796;2023-12-07T04:06:28;96092.98;;;-3.29;100.00
52935;BME280;38802;50.198;19.796;2023-12-07T04:08:56;96093.04;;;-3.26;100.00
52935;BME280;38802;50.198;19.796;2023-12-07T04:11:24;96097.63;;;-3.20;100.00
52935;BME280;38802;50.198;19.796;2023-12-07T04:13:52;96096.38;;;-3.18;100.00
52935;BME280;38802;50.198;19.796;2023-12-07T04:16:20;96099.01;;;-3.21;100.00
52935;BME280;38802;50.198;19.796;2023-12-07T04:18:48;96101.15;;;-3.19;100.00
52935;BME280;38802;50.198;19.796;2023-12-07T04:21:16;96104.73;;;-3.14;100.00
52935;BME280;38802;50.198;19.796;2023-12-07T04:23:44;96102.36;;;-3.08;100.00
52935;BME280;38802;50.198;19.796;2023-12-07T04:26:12;96104.16;;;-3.06;100.00
52935;BME280;38802;50.198;19.796;2023-12-07T04:28:40;96103.75;;;-3.03;100.00
52935;BME280;38802;50.198;19.796;2023-12-07T04:31:08;96105.30;;;-3.04;100.00
52935;BME280;38802;50.198;19.796;2023-12-07T04:33:36;96103.59;;;-3.04;100.00
52935;BME280;38802;50.198;19.796;2023-12-07T04:36:05;96104.23;;;-3.02;100.00
52935;BME280;38802;50.198;19.796;2023-12-07T04:38:33;96109.88;;;-2.98;100.00
52935;BME280;38802;50.198;19.796;2023-12-07T04:41:01;96110.86;;;-2.97;100.00
52935;BME280;38802;50.198;19.796;2023-12-07T04:43:29;96110.48;;;-2.96;100.00
52935;BME280;38802;50.198;19.796;2023-12-07T04:45:57;96110.70;;;-2.92;100.00
52935;BME280;38802;50.198;19.796;2023-12-07T04:48:25;96110.61;;;-2.89;100.00
52935;BME280;38802;50.198;19.796;2023-12-07T04:50:53;96114.98;;;-2.88;100.00
52935;BME280;38802;50.198;19.796;2023-12-07T04:53:21;96116.30;;;-2.86;100.00
52935;BME280;38802;50.198;19.796;2023-12-07T04:55:49;96116.93;;;-2.84;100.00
52935;BME280;38802;50.198;19.796;2023-12-07T04:58:18;96115.48;;;-2.81;100.00
52935;BME280;38802;50.198;19.796;2023-12-07T05:00:45;96116.40;;;-2.78;100.00
52935;BME280;38802;50.198;19.796;2023-12-07T05:03:13;96115.38;;;-2.73;100.00
52935;BME280;38802;50.198;19.796;2023-12-07T05:05:41;96115.23;;;-2.74;100.00
52935;BME280;38802;50.198;19.796;2023-12-07T05:08:09;96120.33;;;-2.69;100.00
52935;BME280;38802;50.198;19.796;2023-12-07T05:10:37;96123.51;;;-2.62;100.00
52935;BME280;38802;50.198;19.796;2023-12-07T05:13:06;96120.86;;;-2.58;100.00
52935;BME280;38802;50.198;19.796;2023-12-07T05:15:34;96123.14;;;-2.60;100.00
52935;BME280;38802;50.198;19.796;2023-12-07T05:18:02;96124.86;;;-2.62;100.00
52935;BME280;38802;50.198;19.796;2023-12-07T05:20:31;96126.33;;;-2.65;100.00
52935;BME280;38802;50.198;19.796;2023-12-07T05:22:59;96130.20;;;-2.69;100.00
52935;BME280;38802;50.198;19.796;2023-12-07T05:25:27;96131.75;;;-2.69;100.00
52935;BME280;38802;50.198;19.796;2023-12-07T05:27:55;96135.51;;;-2.65;100.00
52935;BME280;38802;50.198;19.796;2023-12-07T05:30:25;96138.02;;;-2.64;100.00
52935;BME280;38802;50.198;19.796;2023-12-07T05:32:53;96139.00;;;-2.63;100.00
52935;BME280;38802;50.198;19.796;2023-12-07T05:35:21;96140.37;;;-2.63;100.00
52935;BME280;38802;50.198;19.796;2023-12-07T05:37:51;96142.52;;;-2.60;100.00
52935;BME280;38802;50.198;19.796;2023-12-07T05:40:19;96143.23;;;-2.62;100.00
52935;BME280;38802;50.198;19.796;2023-12-07T05:42:48;96147.79;;;-2.66;100.00
52935;BME280;38802;50.198;19.796;2023-12-07T05:45:17;96153.28;;;-2.68;100.00
52935;BME280;38802;50.198;19.796;2023-12-07T05:47:45;96154.92;;;-2.66;100.00
52935;BME280;38802;50.198;19.796;2023-12-07T05:50:13;96157.34;;;-2.67;100.00
52935;BME280;38802;50.198;19.796;2023-12-07T05:52:41;96154.69;;;-2.69;100.00
52935;BME280;38802;50.198;19.796;2023-12-07T05:55:09;96158.83;;;-2.70;100.00
52935;BME280;38802;50.198;19.796;2023-12-07T05:57:37;96163.08;;;-2.71;100.00
52935;BME280;38802;50.198;19.796;2023-12-07T06:00:06;96166.82;;;-2.71;100.00
52935;BME280;38802;50.198;19.796;2023-12-07T06:02:39;96172.42;;;-2.65;100.00
52935;BME280;38802;50.198;19.796;2023-12-07T06:05:08;96168.91;;;-2.62;100.00
52935;BME280;38802;50.198;19.796;2023-12-07T06:07:36;96170.65;;;-2.63;100.00
52935;BME280;38802;50.198;19.796;2023-12-07T06:10:04;96169.39;;;-2.66;100.00
52935;BME280;38802;50.198;19.796;2023-12-07T06:12:33;96171.69;;;-2.69;100.00
52935;BME280;38802;50.198;19.796;2023-12-07T06:15:01;96171.22;;;-2.65;100.00
52935;BME280;38802;50.198;19.796;2023-12-07T06:17:29;96172.12;;;-2.61;100.00
52935;BME280;38802;50.198;19.796;2023-12-07T06:19:57;96175.30;;;-2.59;100.00
52935;BME280;38802;50.198;19.796;2023-12-07T06:22:25;96174.15;;;-2.60;100.00
52935;BME280;38802;50.198;19.796;2023-12-07T06:24:54;96180.61;;;-2.60;100.00
52935;BME280;38802;50.198;19.796;2023-12-07T06:27:22;96188.51;;;-2.63;100.00
52935;BME280;38802;50.198;19.796;2023-12-07T06:29:50;96193.27;;;-2.63;100.00
52935;BME280;38802;50.198;19.796;2023-12-07T06:32:18;96197.11;;;-2.60;100.00
52935;BME280;38802;50.198;19.796;2023-12-07T06:34:46;96199.67;;;-2.62;100.00
52935;BME280;38802;50.198;19.796;2023-12-07T06:37:14;96203.73;;;-2.60;100.00
52935;BME280;38802;50.198;19.796;2023-12-07T06:39:42;96204.27;;;-2.62;100.00
52935;BME280;38802;50.198;19.796;2023-12-07T06:42:10;96204.93;;;-2.66;100.00
52935;BME280;38802;50.198;19.796;2023-12-07T06:44:38;96207.30;;;-2.71;100.00
52935;BME280;38802;50.198;19.796;2023-12-07T06:47:05;96205.65;;;-2.73;100.00
52935;BME280;38802;50.198;19.796;2023-12-07T06:49:34;96206.81;;;-2.77;100.00
52935;BME280;38802;50.198;19.796;2023-12-07T06:52:16;96211.77;;;-2.78;100.00
52935;BME280;38802;50.198;19.796;2023-12-07T06:54:45;96210.70;;;-2.77;100.00
52935;BME280;38802;50.198;19.796;2023-12-07T06:57:13;96213.34;;;-2.74;100.00
52935;BME280;38802;50.198;19.796;2023-12-07T06:59:41;96210.81;;;-2.75;100.00
52935;BME280;38802;50.198;19.796;2023-12-07T07:02:09;96216.63;;;-2.70;100.00
52935;BME280;38802;50.198;19.796;2023-12-07T07:04:38;96219.45;;;-2.63;100.00
52935;BME280;38802;50.198;19.796;2023-12-07T07:07:06;96228.11;;;-2.62;100.00
52935;BME280;38802;50.198;19.796;2023-12-07T07:09:34;96229.23;;;-2.60;100.00
52935;BME280;38802;50.198;19.796;2023-12-07T07:12:02;96232.70;;;-2.56;100.00
52935;BME280;38802;50.198;19.796;2023-12-07T07:14:30;96232.76;;;-2.58;100.00
52935;BME280;38802;50.198;19.796;2023-12-07T07:16:58;96232.70;;;-2.62;100.00
52935;BME280;38802;50.198;19.796;2023-12-07T07:19:26;96234.83;;;-2.65;100.00
52935;BME280;38802;50.198;19.796;2023-12-07T07:21:54;96237.09;;;-2.67;100.00
52935;BME280;38802;50.198;19.796;2023-12-07T07:24:23;96235.78;;;-2.69;100.00
52935;BME280;38802;50.198;19.796;2023-12-07T07:26:51;96235.92;;;-2.67;100.00
52935;BME280;38802;50.198;19.796;2023-12-07T07:29:19;96238.32;;;-2.63;100.00
52935;BME280;38802;50.198;19.796;2023-12-07T07:31:47;96240.48;;;-2.60;100.00
52935;BME280;38802;50.198;19.796;2023-12-07T07:34:15;96244.15;;;-2.58;100.00
52935;BME280;38802;50.198;19.796;2023-12-07T07:36:44;96245.80;;;-2.56;100.00
52935;BME280;38802;50.198;19.796;2023-12-07T07:39:12;96251.20;;;-2.54;100.00
52935;BME280;38802;50.198;19.796;2023-12-07T07:41:41;96254.11;;;-2.50;100.00
52935;BME280;38802;50.198;19.796;2023-12-07T07:44:09;96255.69;;;-2.46;100.00
52935;BME280;38802;50.198;19.796;2023-12-07T07:46:37;96260.31;;;-2.47;100.00
52935;BME280;38802;50.198;19.796;2023-12-07T07:49:08;96261.11;;;-2.45;100.00
52935;BME280;38802;50.198;19.796;2023-12-07T07:51:36;96258.41;;;-2.46;100.00
52935;BME280;38802;50.198;19.796;2023-12-07T07:54:04;96260.04;;;-2.44;100.00
52935;BME280;38802;50.198;19.796;2023-12-07T07:56:32;96257.20;;;-2.45;100.00
52935;BME280;38802;50.198;19.796;2023-12-07T07:59:00;96258.19;;;-2.44;100.00
52935;BME280;38802;50.198;19.796;2023-12-07T08:01:28;96257.79;;;-2.42;100.00
52935;BME280;38802;50.198;19.796;2023-12-07T08:03:56;96257.97;;;-2.42;100.00
52935;BME280;38802;50.198;19.796;2023-12-07T08:06:24;96259.89;;;-2.39;100.00
52935;BME280;38802;50.198;19.796;2023-12-07T08:08:53;96264.82;;;-2.33;100.00
52935;BME280;38802;50.198;19.796;2023-12-07T08:11:20;96267.95;;;-2.30;100.00
52935;BME280;38802;50.198;19.796;2023-12-07T08:13:49;96269.71;;;-2.27;100.00
52935;BME280;38802;50.198;19.796;2023-12-07T08:16:18;96269.91;;;-2.23;100.00
52935;BME280;38802;50.198;19.796;2023-12-07T08:18:46;96268.03;;;-2.16;100.00
52935;BME280;38802;50.198;19.796;2023-12-07T08:21:21;96267.44;;;-2.08;100.00
52935;BME280;38802;50.198;19.796;2023-12-07T08:23:56;96267.41;;;-2.02;100.00
52935;BME280;38802;50.198;19.796;2023-12-07T08:26:24;96266.79;;;-1.99;100.00
52935;BME280;38802;50.198;19.796;2023-12-07T08:28:56;96268.38;;;-1.95;100.00
52935;BME280;38802;50.198;19.796;2023-12-07T08:31:24;96265.20;;;-1.92;100.00
52935;BME280;38802;50.198;19.796;2023-12-07T08:33:52;96266.94;;;-1.88;100.00
52935;BME280;38802;50.198;19.796;2023-12-07T08:36:21;96269.77;;;-1.86;100.00
52935;BME280;38802;50.198;19.796;2023-12-07T08:38:49;96272.55;;;-1.83;100.00
52935;BME280;38802;50.198;19.796;2023-12-07T08:41:17;96273.87;;;-1.81;100.00
52935;BME280;38802;50.198;19.796;2023-12-07T08:43:45;96275.47;;;-1.78;100.00
52935;BME280;38802;50.198;19.796;2023-12-07T08:46:13;96279.08;;;-1.73;100.00
52935;BME280;38802;50.198;19.796;2023-12-07T08:48:41;96280.29;;;-1.68;100.00
52935;BME280;38802;50.198;19.796;2023-12-07T08:51:10;96286.63;;;-1.65;100.00
52935;BME280;38802;50.198;19.796;2023-12-07T08:53:38;96284.36;;;-1.63;100.00
52935;BME280;38802;50.198;19.796;2023-12-07T08:56:06;96287.38;;;-1.62;100.00
52935;BME280;38802;50.198;19.796;2023-12-07T08:58:34;96290.37;;;-1.54;100.00
52935;BME280;38802;50.198;19.796;2023-12-07T09:01:03;96288.14;;;-1.49;100.00
52935;BME280;38802;50.198;19.796;2023-12-07T09:03:31;96285.18;;;-1.43;100.00
52935;BME280;38802;50.198;19.796;2023-12-07T09:06:00;96285.70;;;-1.33;100.00
52935;BME280;38802;50.198;19.796;2023-12-07T09:08:29;96289.38;;;-1.25;100.00
52935;BME280;38802;50.198;19.796;2023-12-07T09:10:57;96292.82;;;-1.21;100.00
52935;BME280;38802;50.198;19.796;2023-12-07T09:13:25;96290.17;;;-1.19;100.00
52935;BME280;38802;50.198;19.796;2023-12-07T09:15:53;96291.67;;;-1.13;100.00
52935;BME280;38802;50.198;19.796;2023-12-07T09:18:21;96288.28;;;-1.09;100.00
52935;BME280;38802;50.198;19.796;2023-12-07T09:20:49;96291.25;;;-1.06;100.00
52935;BME280;38802;50.198;19.796;2023-12-07T09:23:17;96292.21;;;-1.00;100.00
52935;BME280;38802;50.198;19.796;2023-12-07T09:25:46;96296.64;;;-0.95;100.00
52935;BME280;38802;50.198;19.796;2023-12-07T09:28:14;96296.22;;;-0.88;100.00
52935;BME280;38802;50.198;19.796;2023-12-07T09:30:42;96296.75;;;-0.83;100.00
52935;BME280;38802;50.198;19.796;2023-12-07T09:33:10;96296.81;;;-0.85;100.00
52935;BME280;38802;50.198;19.796;2023-12-07T09:35:38;96299.06;;;-0.86;100.00
52935;BME280;38802;50.198;19.796;2023-12-07T09:38:06;96299.26;;;-0.87;100.00
52935;BME280;38802;50.198;19.796;2023-12-07T09:40:35;96294.36;;;-0.89;100.00
52935;BME280;38802;50.198;19.796;2023-12-07T09:43:03;96298.34;;;-0.85;100.00
52935;BME280;38802;50.198;19.796;2023-12-07T09:45:31;96297.98;;;-0.80;100.00
52935;BME280;38802;50.198;19.796;2023-12-07T09:48:02;96295.06;;;-0.79;100.00
52935;BME280;38802;50.198;19.796;2023-12-07T09:50:30;96291.34;;;-0.80;100.00
52935;BME280;38802;50.198;19.796;2023-12-07T09:52:58;96296.17;;;-0.77;100.00
52935;BME280;38802;50.198;19.796;2023-12-07T09:55:35;96294.69;;;-0.74;100.00
52935;BME280;38802;50.198;19.796;2023-12-07T09:58:05;96292.19;;;-0.71;100.00
52935;BME280;38802;50.198;19.796;2023-12-07T10:00:36;96293.83;;;-0.69;100.00
52935;BME280;38802;50.198;19.796;2023-12-07T10:03:06;96290.02;;;-0.72;100.00
52935;BME280;38802;50.198;19.796;2023-12-07T10:05:54;96289.16;;;-0.68;100.00
52935;BME280;38802;50.198;19.796;2023-12-07T10:08:33;96287.58;;;-0.66;100.00
52935;BME280;38802;50.198;19.796;2023-12-07T10:11:08;96285.48;;;-0.65;100.00
52935;BME280;38802;50.198;19.796;2023-12-07T10:13:37;96284.25;;;-0.64;100.00
52935;BME280;38802;50.198;19.796;2023-12-07T10:16:06;96285.37;;;-0.67;100.00
52935;BME280;38802;50.198;19.796;2023-12-07T10:18:41;96287.83;;;-0.68;100.00
52935;BME280;38802;50.198;19.796;2023-12-07T10:21:12;96286.03;;;-0.66;100.00
52935;BME280;38802;50.198;19.796;2023-12-07T10:23:48;96284.66;;;-0.61;100.00
52935;BME280;38802;50.198;19.796;2023-12-07T10:26:18;96287.39;;;-0.61;100.00
52935;BME280;38802;50.198;19.796;2023-12-07T10:28:49;96287.96;;;-0.58;100.00
52935;BME280;38802;50.198;19.796;2023-12-07T10:31:22;96288.33;;;-0.59;100.00
52935;BME280;38802;50.198;19.796;2023-12-07T10:33:51;96288.15;;;-0.59;100.00
52935;BME280;38802;50.198;19.796;2023-12-07T10:36:19;96291.11;;;-0.56;100.00
52935;BME280;38802;50.198;19.796;2023-12-07T10:38:48;96289.77;;;-0.56;100.00
52935;BME280;38802;50.198;19.796;2023-12-07T10:41:20;96291.04;;;-0.54;100.00
52935;BME280;38802;50.198;19.796;2023-12-07T10:43:52;96292.75;;;-0.54;100.00
52935;BME280;38802;50.198;19.796;2023-12-07T10:46:21;96291.59;;;-0.55;100.00
52935;BME280;38802;50.198;19.796;2023-12-07T10:48:51;96289.21;;;-0.50;100.00
52935;BME280;38802;50.198;19.796;2023-12-07T10:51:23;96284.29;;;-0.56;100.00
52935;BME280;38802;50.198;19.796;2023-12-07T10:54:00;96284.92;;;-0.54;100.00
52935;BME280;38802;50.198;19.796;2023-12-07T10:56:42;96283.53;;;-0.54;100.00
52935;BME280;38802;50.198;19.796;2023-12-07T10:59:12;96285.36;;;-0.53;100.00
52935;BME280;38802;50.198;19.796;2023-12-07T11:01:56;96284.33;;;-0.52;100.00
52935;BME280;38802;50.198;19.796;2023-12-07T11:04:26;96284.66;;;-0.52;100.00
52935;BME280;38802;50.198;19.796;2023-12-07T11:06:56;96283.51;;;-0.44;100.00
52935;BME280;38802;50.198;19.796;2023-12-07T11:09:28;96283.54;;;-0.40;100.00
52935;BME280;38802;50.198;19.796;2023-12-07T11:12:01;96285.86;;;-0.38;100.00
52935;BME280;38802;50.198;19.796;2023-12-07T11:14:32;96286.83;;;-0.37;100.00
52935;BME280;38802;50.198;19.796;2023-12-07T11:17:01;96287.16;;;-0.37;100.00
52935;BME280;38802;50.198;19.796;2023-12-07T11:22:02;96289.10;;;-0.34;100.00
52935;BME280;38802;50.198;19.796;2023-12-07T11:24:35;96285.17;;;-0.34;100.00
52935;BME280;38802;50.198;19.796;2023-12-07T11:27:04;96287.88;;;-0.29;100.00
52935;BME280;38802;50.198;19.796;2023-12-07T11:29:33;96289.59;;;-0.24;100.00
52935;BME280;38802;50.198;19.796;2023-12-07T11:32:03;96288.07;;;-0.21;100.00
52935;BME280;38802;50.198;19.796;2023-12-07T11:34:43;96291.80;;;-0.16;100.00
52935;BME280;38802;50.198;19.796;2023-12-07T11:37:14;96295.05;;;-0.16;100.00
52935;BME280;38802;50.198;19.796;2023-12-07T11:39:44;96294.48;;;-0.15;100.00
52935;BME280;38802;50.198;19.796;2023-12-07T11:42:15;96299.67;;;-0.16;100.00
52935;BME280;38802;50.198;19.796;2023-12-07T11:44:47;96296.56;;;-0.24;100.00
52935;BME280;38802;50.198;19.796;2023-12-07T11:47:17;96296.49;;;-0.31;100.00
52935;BME280;38802;50.198;19.796;2023-12-07T11:49:46;96295.95;;;-0.39;100.00
52935;BME280;38802;50.198;19.796;2023-12-07T11:52:16;96297.70;;;-0.40;100.00
52935;BME280;38802;50.198;19.796;2023-12-07T11:54:45;96297.15;;;-0.44;100.00
52935;BME280;38802;50.198;19.796;2023-12-07T11:57:14;96300.53;;;-0.48;100.00
52935;BME280;38802;50.198;19.796;2023-12-07T11:59:43;96298.83;;;-0.48;100.00
52935;BME280;38802;50.198;19.796;2023-12-07T12:02:12;96295.21;;;-0.51;100.00
52935;BME280;38802;50.198;19.796;2023-12-07T12:04:41;96296.33;;;-0.54;100.00
52935;BME280;38802;50.198;19.796;2023-12-07T12:07:10;96297.85;;;-0.58;100.00
52935;BME280;38802;50.198;19.796;2023-12-07T12:09:38;96294.99;;;-0.59;100.00
52935;BME280;38802;50.198;19.796;2023-12-07T12:12:08;96295.34;;;-0.59;100.00
52935;BME280;38802;50.198;19.796;2023-12-07T12:14:36;96294.00;;;-0.60;100.00
52935;BME280;38802;50.198;19.796;2023-12-07T12:17:04;96295.95;;;-0.57;100.00
52935;BME280;38802;50.198;19.796;2023-12-07T12:19:32;96295.63;;;-0.58;100.00
52935;BME280;38802;50.198;19.796;2023-12-07T12:22:03;96295.17;;;-0.59;100.00
52935;BME280;38802;50.198;19.796;2023-12-07T12:24:35;96295.37;;;-0.56;100.00
52935;BME280;38802;50.198;19.796;2023-12-07T12:27:04;96297.17;;;-0.49;100.00
52935;BME280;38802;50.198;19.796;2023-12-07T12:29:33;96300.94;;;-0.45;100.00
52935;BME280;38802;50.198;19.796;2023-12-07T12:32:03;96303.60;;;-0.48;100.00
52935;BME280;38802;50.198;19.796;2023-12-07T12:34:33;96306.35;;;-0.48;100.00
52935;BME280;38802;50.198;19.796;2023-12-07T12:37:02;96304.86;;;-0.50;100.00
52935;BME280;38802;50.198;19.796;2023-12-07T12:39:34;96306.30;;;-0.56;100.00
52935;BME280;38802;50.198;19.796;2023-12-07T12:42:03;96310.10;;;-0.57;100.00
52935;BME280;38802;50.198;19.796;2023-12-07T12:44:33;96305.73;;;-0.54;100.00
52935;BME280;38802;50.198;19.796;2023-12-07T12:47:05;96302.05;;;-0.47;100.00
52935;BME280;38802;50.198;19.796;2023-12-07T12:49:38;96301.67;;;-0.42;100.00
52935;BME280;38802;50.198;19.796;2023-12-07T12:52:09;96306.41;;;-0.36;100.00
52935;BME280;38802;50.198;19.796;2023-12-07T12:54:37;96311.24;;;-0.37;100.00